Time;durP1;ratioP1;P1;durP2;ratioP2;P2;SDS_P1;SDS_P2;PMS_P1;PMS_P2;Temp;Humidity;BMP_temperature;BMP_pressure;BME280_temperature;BME280_humidity;BME280_pressure;Samples;Min_cycle;Max_cycle;Signal;HPM_P1;HPM_P2
2022/07/11 00:00:03;;;;;;;7.25;2.20;;;19.00;95.40;;;;;;5143993;27;45299;-73
2022/07/11 00:02:30;;;;;;;4.30;1.60;;;18.90;95.50;;;;;;5140033;27;45280;-73
2022/07/11 00:04:56;;;;;;;5.38;1.80;;;18.90;95.50;;;;;;5144404;27;45320;-72
2022/07/11 00:07:23;;;;;;;6.97;1.83;;;18.90;95.60;;;;;;5144038;27;47151;-72
2022/07/11 00:09:50;;;;;;;4.78;1.50;;;18.90;95.70;;;;;;5143275;27;45358;-74
2022/07/11 00:12:20;;;;;;;6.13;1.80;;;18.90;95.80;;;;;;5132434;27;45365;-73
2022/07/11 00:14:47;;;;;;;3.03;1.73;;;18.90;96.20;;;;;;5138020;27;45296;-73
2022/07/11 00:17:15;;;;;;;3.85;1.73;;;18.90;96.50;;;;;;5144877;27;45412;-72
2022/07/11 00:19:42;;;;;;;6.03;1.90;;;18.80;96.20;;;;;;5144848;27;45323;-73
2022/07/11 00:22:09;;;;;;;6.07;1.90;;;18.90;96.70;;;;;;5135170;27;45276;-73
2022/07/11 00:24:36;;;;;;;5.32;2.03;;;18.80;96.30;;;;;;5141736;27;45491;-72
2022/07/11 00:27:03;;;;;;;3.53;1.65;;;18.90;96.70;;;;;;5141560;27;45483;-72
2022/07/11 00:29:31;;;;;;;4.32;2.15;;;18.80;96.40;;;;;;5142242;27;45464;-72
2022/07/11 00:31:58;;;;;;;5.75;2.13;;;18.80;96.60;;;;;;5142259;27;45212;-72
2022/07/11 00:34:27;;;;;;;6.80;1.95;;;18.80;96.70;;;;;;5144967;27;45457;-73
2022/07/11 00:36:53;;;;;;;4.65;1.77;;;18.80;96.60;;;;;;5146847;27;47524;-72
2022/07/11 00:39:20;;;;;;;7.22;1.83;;;18.80;96.70;;;;;;5143867;27;45369;-72
2022/07/11 00:41:47;;;;;;;11.18;1.90;;;18.80;96.70;;;;;;5137351;27;45443;-72
2022/07/11 00:44:14;;;;;;;4.07;1.80;;;18.70;96.80;;;;;;5145777;27;45532;-72
2022/07/11 00:46:41;;;;;;;5.57;1.80;;;18.70;97.00;;;;;;5142750;27;45403;-72
2022/07/11 00:49:08;;;;;;;5.30;2.15;;;18.60;97.10;;;;;;5138203;27;45307;-73
2022/07/11 00:51:37;;;;;;;7.95;1.90;;;18.60;97.20;;;;;;5130240;27;45412;-72
2022/07/11 00:54:07;;;;;;;7.28;2.10;;;18.60;97.40;;;;;;5138448;27;45507;-72
2022/07/11 00:56:34;;;;;;;4.82;2.00;;;18.60;97.50;;;;;;5139597;27;46044;-72
2022/07/11 00:59:01;;;;;;;8.85;2.25;;;18.60;97.50;;;;;;5138622;27;45423;-72
2022/07/11 01:01:28;;;;;;;7.30;2.28;;;18.60;97.90;;;;;;5137544;27;45223;-73
2022/07/11 01:03:55;;;;;;;5.90;1.90;;;18.50;97.60;;;;;;5143500;27;45491;-72
2022/07/11 01:06:22;;;;;;;5.47;2.08;;;18.50;97.80;;;;;;5137010;27;46401;-72
2022/07/11 01:08:50;;;;;;;6.75;2.42;;;18.50;97.90;;;;;;5140836;27;45393;-73
2022/07/11 01:11:17;;;;;;;5.10;2.00;;;18.50;97.90;;;;;;5141011;27;45570;-72
2022/07/11 01:13:44;;;;;;;6.63;1.77;;;18.50;98.20;;;;;;5143089;27;45462;-73
2022/07/11 01:16:13;;;;;;;4.10;2.22;;;18.50;98.10;;;;;;5144985;27;48218;-73
2022/07/11 01:18:42;;;;;;;5.78;1.90;;;18.40;98.30;;;;;;5142411;27;45412;-72
2022/07/11 01:21:22;;;;;;;9.05;2.17;;;18.40;98.90;;;;;;5139197;27;45511;-73
2022/07/11 01:23:52;;;;;;;6.60;2.33;;;18.30;98.70;;;;;;5139277;27;45324;-72
2022/07/11 01:26:21;;;;;;;5.03;1.90;;;18.20;98.90;;;;;;5144926;27;45465;-72
2022/07/11 01:28:48;;;;;;;4.72;1.95;;;18.20;99.20;;;;;;5147407;27;45274;-72
2022/07/11 01:31:15;;;;;;;5.55;2.40;;;18.20;99.20;;;;;;5146570;27;45263;-73
2022/07/11 01:33:41;;;;;;;6.18;2.25;;;18.20;99.10;;;;;;5148035;27;45185;-73
2022/07/11 01:36:09;;;;;;;9.45;2.50;;;18.10;99.40;;;;;;5146531;27;45349;-73
2022/07/11 01:38:35;;;;;;;7.28;2.50;;;18.10;99.50;;;;;;5147886;27;45377;-74
2022/07/11 01:41:04;;;;;;;6.30;2.50;;;18.10;99.60;;;;;;5145615;27;45419;-72
2022/07/11 01:43:31;;;;;;;8.68;2.20;;;18.10;99.80;;;;;;5147206;27;45274;-73
2022/07/11 01:45:58;;;;;;;6.75;2.38;;;18.10;99.80;;;;;;5143817;27;45369;-72
2022/07/11 01:48:25;;;;;;;3.83;1.80;;;18.00;99.70;;;;;;5147710;27;45428;-72
2022/07/11 01:50:52;;;;;;;4.20;2.15;;;17.90;99.70;;;;;;5140752;27;45498;-73
2022/07/11 01:53:19;;;;;;;6.35;2.25;;;17.90;99.90;;;;;;5146688;27;45595;-72
2022/07/11 01:55:46;;;;;;;6.13;2.40;;;17.80;99.90;;;;;;5142486;27;48055;-73
2022/07/11 01:58:14;;;;;;;12.98;2.40;;;17.80;99.90;;;;;;5141152;27;45291;-72
2022/07/11 02:00:41;;;;;;;4.32;2.30;;;17.70;99.90;;;;;;5146130;27;45393;-73
2022/07/11 02:03:08;;;;;;;6.50;2.33;;;17.70;99.90;;;;;;5137817;27;45256;-72
2022/07/11 02:05:35;;;;;;;6.18;2.42;;;17.70;99.90;;;;;;5147732;27;47275;-72
2022/07/11 02:08:13;;;;;;;10.20;2.58;;;17.60;99.90;;;;;;5147148;27;45232;-73
2022/07/11 02:10:42;;;;;;;4.05;2.10;;;17.60;99.90;;;;;;5140388;27;45577;-73
2022/07/11 02:13:10;;;;;;;5.68;2.45;;;17.50;99.90;;;;;;5135454;27;45489;-72
2022/07/11 02:15:39;;;;;;;6.22;2.22;;;17.50;99.90;;;;;;5143649;27;45507;-72
2022/07/11 02:18:06;;;;;;;5.65;2.65;;;17.50;99.90;;;;;;5148897;27;46085;-72
2022/07/11 02:20:34;;;;;;;7.00;2.55;;;17.50;99.90;;;;;;5140995;27;45342;-72
2022/07/11 02:23:01;;;;;;;3.92;2.15;;;17.40;99.90;;;;;;5146987;27;45269;-72
2022/07/11 02:25:28;;;;;;;5.72;2.25;;;17.40;99.90;;;;;;5145962;27;47587;-73
2022/07/11 02:27:55;;;;;;;4.75;2.22;;;17.40;99.90;;;;;;5144637;27;45440;-72
2022/07/11 02:30:23;;;;;;;8.55;2.95;;;17.40;99.90;;;;;;5144627;27;45318;-72
2022/07/11 02:32:52;;;;;;;6.50;2.30;;;17.30;99.90;;;;;;5147329;27;45509;-72
2022/07/11 02:35:19;;;;;;;6.22;2.35;;;17.30;99.90;;;;;;5146914;27;47556;-72
2022/07/11 02:37:46;;;;;;;6.35;2.28;;;17.30;99.90;;;;;;5146822;27;45513;-72
2022/07/11 02:40:13;;;;;;;7.13;2.33;;;17.20;99.90;;;;;;5141756;27;45391;-73
2022/07/11 02:42:40;;;;;;;10.57;2.42;;;17.20;99.90;;;;;;5139875;27;45412;-72
2022/07/11 02:45:08;;;;;;;3.95;2.35;;;17.20;99.90;;;;;;5127488;27;46243;-73
2022/07/11 02:47:36;;;;;;;7.75;2.50;;;17.10;99.90;;;;;;5134411;27;45687;-72
2022/07/11 02:50:05;;;;;;;7.90;2.30;;;17.20;99.90;;;;;;5144639;27;45353;-72
2022/07/11 02:52:32;;;;;;;5.53;2.63;;;17.20;99.90;;;;;;5140582;27;45251;-73
2022/07/11 02:54:59;;;;;;;7.45;2.67;;;17.10;99.90;;;;;;5146229;27;46304;-73
2022/07/11 02:57:26;;;;;;;5.82;2.55;;;17.10;99.90;;;;;;5144733;27;45420;-72
2022/07/11 02:59:53;;;;;;;7.32;2.67;;;17.00;99.90;;;;;;5138197;27;45350;-72
2022/07/11 03:02:20;;;;;;;10.63;2.90;;;16.90;99.90;;;;;;5145615;27;45422;-72
2022/07/11 03:04:46;;;;;;;10.25;2.72;;;16.90;99.90;;;;;;5144778;27;47512;-72
2022/07/11 03:07:16;;;;;;;7.35;2.40;;;16.90;99.90;;;;;;5145097;27;45388;-72
2022/07/11 03:09:43;;;;;;;4.60;2.53;;;16.90;99.90;;;;;;5148775;27;45349;-72
2022/07/11 03:12:10;;;;;;;4.70;2.47;;;16.80;99.90;;;;;;5138625;27;45647;-72
2022/07/11 03:14:37;;;;;;;9.65;2.40;;;16.80;99.90;;;;;;5137442;27;46431;-72
2022/07/11 03:17:04;;;;;;;6.38;2.60;;;16.70;99.90;;;;;;5139498;27;45227;-72
2022/07/11 03:19:30;;;;;;;7.50;2.63;;;16.70;99.90;;;;;;5144807;27;45318;-73
2022/07/11 03:21:57;;;;;;;6.22;2.53;;;16.70;99.90;;;;;;5138394;27;45485;-72
2022/07/11 03:24:25;;;;;;;7.65;2.85;;;16.60;99.90;;;;;;5140066;27;47529;-72
2022/07/11 03:26:52;;;;;;;9.93;2.78;;;16.60;99.90;;;;;;5130465;27;45538;-72
2022/07/11 03:29:19;;;;;;;5.10;2.55;;;16.60;99.90;;;;;;5141865;27;45490;-73
2022/07/11 03:31:45;;;;;;;7.15;2.83;;;16.50;99.90;;;;;;5144706;27;45563;-72
2022/07/11 03:34:12;;;;;;;5.07;2.65;;;16.50;99.90;;;;;;5141424;27;47482;-73
2022/07/11 03:36:39;;;;;;;6.93;2.83;;;16.50;99.90;;;;;;5142060;27;45299;-73
2022/07/11 03:39:06;;;;;;;7.05;2.75;;;16.50;99.90;;;;;;5146242;27;45265;-72
2022/07/11 03:41:35;;;;;;;7.18;2.35;;;16.50;99.90;;;;;;5145845;27;45264;-72
2022/07/11 03:44:01;;;;;;;4.45;2.35;;;16.50;99.90;;;;;;5145611;27;46058;-72
2022/07/11 03:46:28;;;;;;;9.32;3.08;;;16.50;99.90;;;;;;5137379;27;45446;-72
2022/07/11 03:48:55;;;;;;;4.43;2.72;;;16.60;99.90;;;;;;5133643;27;45391;-72
2022/07/11 03:51:22;;;;;;;8.55;2.85;;;16.60;99.90;;;;;;5144135;27;45325;-72
2022/07/11 03:53:49;;;;;;;6.47;2.70;;;16.60;99.90;;;;;;5143760;27;46831;-72
2022/07/11 03:56:20;;;;;;;5.95;2.53;;;16.70;99.90;;;;;;5139283;27;45434;-72
2022/07/11 03:58:49;;;;;;;8.27;2.72;;;16.60;99.90;;;;;;5142473;27;45283;-73
2022/07/11 04:01:15;;;;;;;10.80;2.67;;;16.70;99.90;;;;;;5141447;27;45295;-73
2022/07/11 04:03:42;;;;;;;7.53;2.80;;;16.80;99.90;;;;;;5142300;27;45485;-72
2022/07/11 04:06:09;;;;;;;5.28;2.45;;;16.80;99.90;;;;;;5130258;27;45460;-72
2022/07/11 04:08:36;;;;;;;8.82;2.50;;;16.80;99.90;;;;;;5137008;27;45260;-73
2022/07/11 04:11:02;;;;;;;5.53;2.70;;;16.90;99.90;;;;;;5139326;27;45462;-72
2022/07/11 04:13:31;;;;;;;8.15;2.55;;;16.90;99.90;;;;;;5142471;27;46422;-72
2022/07/11 04:15:59;;;;;;;4.32;2.22;;;17.00;99.90;;;;;;5143925;27;46264;-73
2022/07/11 04:18:26;;;;;;;4.50;1.98;;;17.00;99.90;;;;;;5143864;27;45357;-73
2022/07/11 04:20:53;;;;;;;7.93;2.35;;;16.90;99.90;;;;;;5143560;27;45391;-72
2022/07/11 04:23:19;;;;;;;5.03;2.25;;;16.90;99.90;;;;;;5143669;27;47945;-73
2022/07/11 04:25:46;;;;;;;6.03;2.15;;;17.00;99.90;;;;;;5142368;27;45716;-72
2022/07/11 04:28:13;;;;;;;7.13;2.00;;;17.10;99.90;;;;;;5145713;27;45455;-72
2022/07/11 04:30:40;;;;;;;5.22;2.05;;;17.20;99.90;;;;;;5142491;27;45348;-73
2022/07/11 04:33:08;;;;;;;3.90;2.22;;;17.30;99.90;;;;;;5134784;27;46593;-72
2022/07/11 04:35:34;;;;;;;7.40;2.15;;;17.30;99.90;;;;;;5143757;27;45253;-73
2022/07/11 04:38:01;;;;;;;11.98;1.73;;;17.30;99.90;;;;;;5145131;27;45334;-73
2022/07/11 04:40:28;;;;;;;10.65;2.25;;;17.30;99.90;;;;;;5133508;27;45305;-72
2022/07/11 04:42:55;;;;;;;8.15;2.47;;;17.30;99.90;;;;;;5133873;27;46286;-73
2022/07/11 04:45:22;;;;;;;4.75;1.70;;;17.40;99.90;;;;;;5144635;27;45645;-73
2022/07/11 04:47:49;;;;;;;5.53;1.75;;;17.50;99.90;;;;;;5142673;27;45297;-72
2022/07/11 04:50:17;;;;;;;4.10;1.90;;;17.50;99.90;;;;;;5143345;27;45554;-72
2022/07/11 04:52:44;;;;;;;2.30;1.42;;;17.50;99.90;;;;;;5146921;27;45397;-72
2022/07/11 04:55:10;;;;;;;5.35;1.55;;;17.50;99.90;;;;;;5144512;27;45348;-72
2022/07/11 04:57:37;;;;;;;6.40;2.05;;;17.50;99.90;;;;;;5133315;27;45357;-73
2022/07/11 05:00:06;;;;;;;4.88;1.80;;;17.50;99.90;;;;;;5142073;27;45517;-72
2022/07/11 05:02:33;;;;;;;4.50;1.60;;;17.60;99.90;;;;;;5139250;27;48210;-72
2022/07/11 05:04:59;;;;;;;5.82;1.90;;;17.60;99.90;;;;;;5138168;27;45347;-73
2022/07/11 05:07:28;;;;;;;5.47;1.90;;;17.60;99.90;;;;;;5144017;27;45357;-72
2022/07/11 05:09:54;;;;;;;4.25;1.73;;;17.60;99.90;;;;;;5140961;27;45392;-72
2022/07/11 05:12:21;;;;;;;5.43;1.92;;;17.70;99.90;;;;;;5126904;27;47373;-73
2022/07/11 05:14:49;;;;;;;5.10;2.20;;;17.70;99.90;;;;;;5137779;27;45480;-72
2022/07/11 05:17:15;;;;;;;4.28;1.80;;;17.60;99.90;;;;;;5141926;27;45374;-73
2022/07/11 05:19:42;;;;;;;6.50;2.13;;;17.60;99.90;;;;;;5140887;27;45275;-72
2022/07/11 05:22:09;;;;;;;11.20;2.25;;;17.60;99.90;;;;;;5137063;27;45398;-73
2022/07/11 05:24:37;;;;;;;3.45;2.00;;;17.60;99.90;;;;;;5140806;27;45399;-72
2022/07/11 05:27:04;;;;;;;2.75;1.50;;;17.70;99.90;;;;;;5134264;27;45288;-72
2022/07/11 05:29:31;;;;;;;3.85;1.60;;;17.70;99.90;;;;;;5144066;27;45468;-72
2022/07/11 05:31:57;;;;;;;5.78;2.20;;;17.70;99.90;;;;;;5143688;27;46708;-73
2022/07/11 05:34:25;;;;;;;5.97;2.28;;;17.70;99.90;;;;;;5131593;27;45431;-72
2022/07/11 05:36:53;;;;;;;3.45;1.45;;;17.80;99.90;;;;;;5132317;27;45293;-72
2022/07/11 05:39:19;;;;;;;4.65;1.63;;;17.70;99.90;;;;;;5129826;27;45529;-73
2022/07/11 05:41:51;;;;;;;5.15;1.08;;;17.70;99.90;;;;;;5132738;27;48350;-72
2022/07/11 05:44:18;;;;;;;5.05;1.70;;;17.90;99.90;;;;;;5137488;27;45389;-72
2022/07/11 05:46:45;;;;;;;4.03;1.40;;;17.90;99.90;;;;;;5138095;27;45437;-72
2022/07/11 05:49:13;;;;;;;5.40;1.83;;;17.90;99.90;;;;;;5144532;27;45405;-72
2022/07/11 05:51:40;;;;;;;8.90;1.48;;;18.00;99.90;;;;;;5141566;27;45219;-72
2022/07/11 05:54:07;;;;;;;4.50;1.50;;;18.10;99.90;;;;;;5136118;27;45538;-73
2022/07/11 05:56:34;;;;;;;3.30;1.60;;;18.10;99.90;;;;;;5127313;27;45378;-73
2022/07/11 05:59:02;;;;;;;6.75;1.42;;;18.20;99.90;;;;;;5146725;27;45410;-73
2022/07/11 06:01:31;;;;;;;4.05;1.35;;;18.10;99.90;;;;;;5140468;27;46432;-72
2022/07/11 06:03:58;;;;;;;3.95;1.27;;;18.10;99.90;;;;;;5146709;27;45340;-71
2022/07/11 06:06:25;;;;;;;2.33;1.30;;;18.20;99.90;;;;;;5136760;27;45405;-71
2022/07/11 06:08:53;;;;;;;1.73;1.35;;;18.20;99.90;;;;;;5141564;27;45275;-72
2022/07/11 06:11:20;;;;;;;2.88;1.20;;;18.20;99.90;;;;;;5146098;27;47319;-73
2022/07/11 06:13:48;;;;;;;5.25;1.27;;;18.20;99.90;;;;;;5133238;27;45323;-72
2022/07/11 06:16:18;;;;;;;6.13;1.40;;;18.20;99.90;;;;;;5147293;27;45540;-71
2022/07/11 06:18:45;;;;;;;7.50;1.60;;;18.30;99.90;;;;;;5131254;27;45608;-72
2022/07/11 06:21:12;;;;;;;8.50;1.90;;;18.30;99.90;;;;;;5145175;27;48167;-72
2022/07/11 06:23:40;;;;;;;7.25;1.50;;;18.30;99.90;;;;;;5139977;27;45648;-73
2022/07/11 06:26:06;;;;;;;5.68;1.52;;;18.30;99.90;;;;;;5134791;27;45562;-72
2022/07/11 06:28:34;;;;;;;5.63;1.70;;;18.30;99.90;;;;;;5136181;27;45558;-72
2022/07/11 06:31:01;;;;;;;3.92;1.30;;;18.30;99.90;;;;;;5128906;27;46562;-72
2022/07/11 06:33:29;;;;;;;6.97;1.60;;;18.20;99.90;;;;;;5143726;27;45395;-72
2022/07/11 06:35:56;;;;;;;2.97;1.23;;;18.30;99.90;;;;;;5148911;27;45485;-72
2022/07/11 06:38:23;;;;;;;4.65;1.55;;;18.20;99.90;;;;;;5145681;27;45358;-72
2022/07/11 06:40:50;;;;;;;8.50;2.30;;;18.20;99.90;;;;;;5144094;27;47399;-72
2022/07/11 06:43:17;;;;;;;8.63;1.60;;;18.20;99.90;;;;;;5139084;27;45256;-73
2022/07/11 06:45:44;;;;;;;5.28;1.70;;;18.20;99.90;;;;;;5138707;27;45555;-72
2022/07/11 06:48:11;;;;;;;8.00;1.38;;;18.20;99.90;;;;;;5139584;27;45405;-73
2022/07/11 06:50:39;;;;;;;3.63;1.40;;;18.20;99.90;;;;;;5140592;27;46362;-73
2022/07/11 06:53:06;;;;;;;2.53;1.40;;;18.20;99.90;;;;;;5144436;27;45596;-72
2022/07/11 06:55:33;;;;;;;4.07;1.35;;;18.10;99.90;;;;;;5126668;27;45493;-72
2022/07/11 06:58:00;;;;;;;4.88;1.45;;;18.10;99.90;;;;;;5139364;27;45363;-72
2022/07/11 07:00:28;;;;;;;5.00;1.35;;;18.20;99.90;;;;;;5129172;27;46328;-73
2022/07/11 07:02:56;;;;;;;3.30;1.38;;;18.30;99.90;;;;;;5137308;27;45407;-72
2022/07/11 07:05:23;;;;;;;3.60;1.38;;;18.40;99.90;;;;;;5132324;27;45642;-73
2022/07/11 07:07:52;;;;;;;2.03;1.30;;;18.30;99.90;;;;;;5129846;27;45417;-72
2022/07/11 07:10:19;;;;;;;5.10;1.60;;;18.30;99.90;;;;;;5134802;27;46466;-72
2022/07/11 07:12:47;;;;;;;7.65;1.65;;;18.40;99.90;;;;;;5125190;27;45454;-72
2022/07/11 07:15:14;;;;;;;5.82;1.80;;;18.40;99.90;;;;;;5140389;27;45323;-72
2022/07/11 07:17:41;;;;;;;4.07;1.75;;;18.50;99.90;;;;;;5134322;27;45259;-72
2022/07/11 07:20:10;;;;;;;6.28;1.55;;;18.50;99.90;;;;;;5131045;27;47059;-72
2022/07/11 07:22:37;;;;;;;3.22;1.42;;;18.40;99.90;;;;;;5139426;27;45376;-71
2022/07/11 07:25:07;;;;;;;5.72;1.55;;;18.50;99.90;;;;;;5126882;27;45433;-72
2022/07/11 07:27:34;;;;;;;4.03;1.80;;;18.50;99.90;;;;;;5144219;27;45313;-72
2022/07/11 07:30:00;;;;;;;5.28;1.60;;;18.50;99.90;;;;;;5131414;27;48755;-72
2022/07/11 07:32:27;;;;;;;5.55;1.40;;;18.50;99.90;;;;;;5144738;27;45287;-72
2022/07/11 07:34:54;;;;;;;5.65;1.60;;;18.60;99.90;;;;;;5136634;27;45350;-72
2022/07/11 07:37:21;;;;;;;5.72;1.35;;;18.60;99.90;;;;;;5144958;27;45328;-72
2022/07/11 07:39:48;;;;;;;5.25;1.40;;;18.40;99.90;;;;;;5137135;27;46312;-73
2022/07/11 07:42:16;;;;;;;5.60;1.52;;;18.30;99.90;;;;;;5136024;27;45211;-73
2022/07/11 07:44:42;;;;;;;9.98;1.60;;;18.40;99.90;;;;;;5135681;27;45554;-74
2022/07/11 07:47:09;;;;;;;7.47;1.88;;;17.80;99.90;;;;;;5139739;27;45439;-72
2022/07/11 07:49:36;;;;;;;4.60;1.60;;;17.90;99.90;;;;;;5127482;27;47763;-73
2022/07/11 07:52:03;;;;;;;7.85;1.92;;;17.90;99.90;;;;;;5142847;27;45417;-72
2022/07/11 07:54:30;;;;;;;7.25;1.50;;;17.60;99.90;;;;;;5132252;27;45415;-72
2022/07/11 07:56:57;;;;;;;2.97;1.75;;;17.70;99.90;;;;;;5128800;27;45242;-73
2022/07/11 07:59:25;;;;;;;3.25;1.88;;;17.40;99.90;;;;;;5134360;27;47685;-72
2022/07/11 08:01:51;;;;;;;4.38;1.58;;;17.80;99.90;;;;;;5130791;27;45563;-72
2022/07/11 08:04:19;;;;;;;6.97;1.70;;;18.00;99.90;;;;;;5131280;27;45430;-71
2022/07/11 08:06:45;;;;;;;2.97;1.90;;;18.20;99.90;;;;;;5132745;27;45488;-72
2022/07/11 08:09:12;;;;;;;2.60;1.52;;;18.40;99.90;;;;;;5144341;27;46542;-72
2022/07/11 08:11:39;;;;;;;4.28;1.50;;;18.40;99.90;;;;;;5129740;27;45511;-71
2022/07/11 08:14:08;;;;;;;4.63;1.50;;;18.60;99.90;;;;;;5131831;27;45639;-72
2022/07/11 08:16:37;;;;;;;3.50;1.63;;;18.60;99.90;;;;;;5130125;27;45255;-73
2022/07/11 08:19:05;;;;;;;4.40;1.48;;;18.60;99.90;;;;;;5124140;27;45476;-72
2022/07/11 08:21:33;;;;;;;2.63;1.08;;;18.70;99.90;;;;;;5126096;27;45418;-72
2022/07/11 08:24:00;;;;;;;6.07;1.17;;;18.90;99.90;;;;;;5135053;27;45267;-72
2022/07/11 08:26:28;;;;;;;1.70;1.05;;;19.00;99.90;;;;;;5145548;27;45579;-73
2022/07/11 08:28:54;;;;;;;6.63;1.48;;;19.00;99.90;;;;;;5142289;27;45408;-73
2022/07/11 08:31:21;;;;;;;2.83;0.98;;;19.10;99.90;;;;;;5144618;27;45276;-72
2022/07/11 08:33:50;;;;;;;2.25;0.88;;;19.10;99.90;;;;;;5144340;27;45282;-72
2022/07/11 08:36:17;;;;;;;3.90;1.10;;;19.10;99.90;;;;;;5145209;27;45309;-73
2022/07/11 08:38:46;;;;;;;3.17;1.08;;;19.20;99.90;;;;;;5145197;27;47049;-72
2022/07/11 08:41:13;;;;;;;2.30;1.00;;;19.30;99.90;;;;;;5144383;27;45879;-72
2022/07/11 08:43:42;;;;;;;5.07;1.13;;;19.30;99.90;;;;;;5145529;27;45368;-72
2022/07/11 08:46:10;;;;;;;3.17;1.20;;;19.30;99.90;;;;;;5144639;27;45613;-72
2022/07/11 08:48:40;;;;;;;0.85;0.77;;;19.30;99.90;;;;;;5145275;27;45505;-73
2022/07/11 08:51:09;;;;;;;2.97;1.05;;;19.40;99.90;;;;;;5136612;27;45886;-73
2022/07/11 08:53:41;;;;;;;3.85;1.10;;;19.10;99.90;;;;;;5131815;27;45252;-72
2022/07/11 08:56:14;;;;;;;3.90;1.30;;;18.80;99.90;;;;;;5124875;27;45350;-71
2022/07/11 08:58:44;;;;;;;2.28;1.25;;;18.70;99.90;;;;;;5127222;27;45433;-72
2022/07/11 09:01:11;;;;;;;5.22;1.08;;;18.80;99.90;;;;;;5143074;27;45356;-72
2022/07/11 09:03:39;;;;;;;1.73;0.88;;;19.00;99.90;;;;;;5139271;27;45431;-71
2022/07/11 09:06:07;;;;;;;6.35;1.00;;;18.80;99.90;;;;;;5142832;27;45281;-72
2022/07/11 09:08:35;;;;;;;2.60;0.73;;;18.90;99.90;;;;;;5127895;27;47016;-71
2022/07/11 09:11:02;;;;;;;2.30;1.10;;;18.90;99.90;;;;;;5133395;27;45756;-72
2022/07/11 09:13:30;;;;;;;1.65;0.75;;;18.70;99.90;;;;;;5135620;27;45430;-71
2022/07/11 09:16:02;;;;;;;4.57;0.82;;;18.80;99.90;;;;;;5138059;27;45411;-70
2022/07/11 09:18:35;;;;;;;1.48;0.82;;;18.70;99.90;;;;;;5126529;27;45440;-71
2022/07/11 09:26:37;;;;;;;2.25;1.15;;;18.60;99.90;;;;;;5129379;27;45313;-71
2022/07/11 09:29:08;;;;;;;2.67;1.10;;;18.70;99.90;;;;;;5131556;27;45375;-72
2022/07/11 09:31:36;;;;;;;1.95;1.17;;;18.70;99.90;;;;;;5134156;27;45496;-70
2022/07/11 09:34:05;;;;;;;3.60;1.13;;;18.90;99.90;;;;;;5133294;27;45516;-73
2022/07/11 09:36:36;;;;;;;1.92;0.98;;;18.90;99.90;;;;;;5129585;27;45678;-71
2022/07/11 09:39:06;;;;;;;1.13;0.80;;;19.00;99.90;;;;;;5133876;27;47808;-72
2022/07/11 09:41:34;;;;;;;2.20;0.90;;;18.90;99.90;;;;;;5133219;27;45592;-71
2022/07/11 09:44:22;;;;;;;4.97;0.90;;;18.80;99.90;;;;;;5143401;27;45621;-71
2022/07/11 09:46:51;;;;;;;1.60;1.00;;;19.00;99.90;;;;;;5140101;27;45630;-72
2022/07/11 09:49:30;;;;;;;4.10;1.05;;;19.00;99.90;;;;;;5140846;27;48252;-72
2022/07/11 09:52:07;;;;;;;6.22;1.10;;;18.80;99.90;;;;;;5145989;27;45481;-72
2022/07/11 09:54:54;;;;;;;5.00;0.80;;;18.90;99.90;;;;;;5139271;27;45395;-72
2022/07/11 09:57:29;;;;;;;2.10;0.57;;;19.20;99.90;;;;;;5125655;27;45592;-72
2022/07/11 09:59:56;;;;;;;2.95;1.10;;;19.30;99.90;;;;;;5139400;27;46546;-72
2022/07/11 10:02:23;;;;;;;2.60;0.85;;;19.20;99.90;;;;;;5137130;27;45414;-72
2022/07/11 10:04:51;;;;;;;2.38;0.68;;;19.20;99.90;;;;;;5140951;27;45302;-72
2022/07/11 10:07:17;;;;;;;2.72;0.88;;;19.40;99.90;;;;;;5132606;27;45495;-72
2022/07/11 10:09:46;;;;;;;0.90;0.52;;;19.10;99.90;;;;;;5136191;27;46303;-72
2022/07/11 10:12:13;;;;;;;0.50;0.50;;;19.50;99.90;;;;;;5137215;27;45443;-72
2022/07/11 10:14:41;;;;;;;1.17;0.63;;;19.40;99.90;;;;;;5137818;27;45476;-72
2022/07/11 10:17:14;;;;;;;1.25;0.60;;;19.40;99.90;;;;;;5147736;27;45320;-73
2022/07/11 10:19:46;;;;;;;2.38;0.70;;;19.30;99.90;;;;;;5140753;27;46440;-72
2022/07/11 10:22:23;;;;;;;1.73;0.60;;;19.30;99.90;;;;;;5131968;27;45505;-72
2022/07/11 10:24:57;;;;;;;2.35;0.77;;;19.30;99.90;;;;;;5132985;27;45318;-72
2022/07/11 10:27:31;;;;;;;1.95;0.60;;;19.30;99.90;;;;;;5139359;27;45410;-73
2022/07/11 10:29:58;;;;;;;3.03;0.90;;;19.20;99.90;;;;;;5144664;27;46274;-72
2022/07/11 10:32:25;;;;;;;2.50;0.80;;;19.20;99.90;;;;;;5143414;27;45449;-72
2022/07/11 10:35:09;;;;;;;0.82;0.73;;;19.30;99.90;;;;;;5143064;27;45343;-72
2022/07/11 10:37:49;;;;;;;1.38;0.70;;;19.20;99.90;;;;;;5131628;27;45561;-72
2022/07/11 10:40:41;;;;;;;4.38;0.80;;;19.30;99.90;;;;;;5150994;27;47381;-72
2022/07/11 10:43:08;;;;;;;4.03;0.75;;;19.30;99.90;;;;;;5133738;27;45479;-72
2022/07/11 10:45:50;;;;;;;1.95;0.70;;;19.50;99.90;;;;;;5135881;27;45323;-72
2022/07/11 10:48:17;;;;;;;2.45;0.60;;;19.60;99.90;;;;;;5130025;27;45441;-72
2022/07/11 10:50:45;;;;;;;0.52;0.40;;;19.60;99.90;;;;;;5133935;27;47739;-72
2022/07/11 10:53:21;;;;;;;2.35;0.32;;;19.70;99.90;;;;;;5140083;27;45468;-72
2022/07/11 10:56:03;;;;;;;3.25;0.50;;;19.70;99.90;;;;;;5140272;27;45341;-72
2022/07/11 10:58:31;;;;;;;3.45;0.40;;;19.80;99.90;;;;;;5144447;27;45559;-72
2022/07/11 11:01:11;;;;;;;6.55;0.70;;;19.90;99.90;;;;;;5138455;27;46316;-72
2022/07/11 11:03:39;;;;;;;0.50;0.30;;;19.90;99.90;;;;;;5141214;27;45244;-72
2022/07/11 11:06:06;;;;;;;0.95;0.20;;;19.90;99.60;;;;;;5142317;27;45551;-72
2022/07/11 11:08:47;;;;;;;1.20;0.20;;;19.90;99.90;;;;;;5144993;27;45405;-72
2022/07/11 11:11:40;;;;;;;4.53;0.43;;;20.00;99.90;;;;;;5137003;27;45548;-72
2022/07/11 11:14:22;;;;;;;0.80;0.38;;;20.00;98.50;;;;;;5143471;27;45320;-72
2022/07/11 11:16:49;;;;;;;0.85;0.30;;;20.00;99.90;;;;;;5141662;27;45525;-72
2022/07/11 11:19:53;;;;;;;0.30;0.17;;;20.10;98.60;;;;;;5126027;27;45586;-72
2022/07/11 11:22:22;;;;;;;0.93;0.32;;;20.10;99.90;;;;;;5139450;27;46562;-72
2022/07/11 11:24:50;;;;;;;0.88;0.28;;;20.20;98.90;;;;;;5145001;27;45420;-72
2022/07/11 11:27:21;;;;;;;1.45;0.20;;;20.30;97.80;;;;;;5143964;27;45291;-73
2022/07/11 11:29:50;;;;;;;0.30;0.30;;;20.30;99.90;;;;;;5143726;27;45309;-72
2022/07/11 11:32:17;;;;;;;0.35;0.35;;;20.30;98.70;;;;;;5138831;27;46086;-72
2022/07/11 11:34:44;;;;;;;2.58;0.50;;;20.40;98.90;;;;;;5136706;27;45420;-72
2022/07/11 11:37:11;;;;;;;0.43;0.35;;;20.40;99.90;;;;;;5133065;27;45349;-72
2022/07/11 11:39:40;;;;;;;0.45;0.30;;;20.40;98.90;;;;;;5132710;27;45427;-72
2022/07/11 11:42:15;;;;;;;0.40;0.22;;;20.40;98.50;;;;;;5134586;27;48029;-72
2022/07/11 11:44:55;;;;;;;2.75;0.55;;;20.40;99.90;;;;;;5142210;27;45344;-72
2022/07/11 11:47:23;;;;;;;1.10;0.40;;;20.40;99.40;;;;;;5145866;27;45344;-72
2022/07/11 11:49:51;;;;;;;0.60;0.30;;;20.40;97.90;;;;;;5131471;27;45444;-72
2022/07/11 11:52:19;;;;;;;1.05;0.30;;;20.40;97.70;;;;;;5136487;27;46297;-73
2022/07/11 11:54:52;;;;;;;1.13;0.40;;;20.50;97.70;;;;;;5135437;27;45803;-72
2022/07/11 11:57:22;;;;;;;2.55;0.50;;;20.50;99.90;;;;;;5143925;27;45430;-72
2022/07/11 11:59:49;;;;;;;1.48;0.68;;;20.40;99.90;;;;;;5134405;27;45764;-73
2022/07/11 12:02:27;;;;;;;0.40;0.40;;;20.30;99.90;;;;;;5141795;27;47598;-73
2022/07/11 12:04:55;;;;;;;0.47;0.22;;;20.40;97.70;;;;;;5136885;27;45467;-73
2022/07/11 12:07:29;;;;;;;0.25;0.20;;;20.70;97.10;;;;;;5138981;27;45268;-72
2022/07/11 12:09:59;;;;;;;0.43;0.30;;;20.70;96.80;;;;;;5130625;27;46481;-72
2022/07/11 12:12:45;;;;;;;1.95;0.30;;;20.70;97.00;;;;;;5133886;27;45314;-72
2022/07/11 12:15:31;;;;;;;0.20;0.20;;;20.70;97.00;;;;;;5133431;27;45390;-73
2022/07/11 12:18:00;;;;;;;6.88;1.42;;;20.80;96.00;;;;;;5134517;27;45556;-72
2022/07/11 12:20:51;;;;;;;0.82;0.40;;;20.70;99.90;;;;;;5139131;27;45556;-72
2022/07/11 12:23:19;;;;;;;4.15;0.40;;;20.60;96.90;;;;;;5123599;27;46218;-72
2022/07/11 12:25:47;;;;;;;1.17;0.43;;;20.70;96.40;;;;;;5134514;27;45486;-72
2022/07/11 12:28:14;;;;;;;2.45;1.05;;;20.60;99.90;;;;;;5135356;27;45400;-73
2022/07/11 12:30:41;;;;;;;1.63;0.50;;;20.40;99.90;;;;;;5140372;27;45436;-74
2022/07/11 12:33:12;;;;;;;1.23;0.47;;;20.40;99.90;;;;;;5137449;27;46328;-73
2022/07/11 12:35:55;;;;;;;5.00;0.75;;;20.50;99.90;;;;;;5139639;27;45388;-73
2022/07/11 12:38:22;;;;;;;0.30;0.30;;;20.40;99.90;;;;;;5141875;27;45693;-72
2022/07/11 12:41:00;;;;;;;1.00;0.10;;;20.50;97.40;;;;;;5144149;27;45261;-72
2022/07/11 12:46:25;;;;;;;1.00;0.40;;;20.80;96.80;;;;;;5128603;27;45358;-72
2022/07/11 12:48:55;;;;;;;0.10;0.10;;;20.90;95.90;;;;;;5141612;27;45298;-72
2022/07/11 12:51:27;;;;;;;0.20;0.20;;;20.90;95.70;;;;;;5140952;27;45543;-72
2022/07/11 12:54:01;;;;;;;1.00;0.40;;;20.90;95.50;;;;;;5140151;27;45488;-72
2022/07/11 12:56:28;;;;;;;2.30;0.35;;;20.70;99.90;;;;;;5137336;27;45507;-72
2022/07/11 12:58:54;;;;;;;0.35;0.25;;;20.70;96.40;;;;;;5141719;27;45290;-73
2022/07/11 13:01:21;;;;;;;0.10;0.10;;;20.80;95.90;;;;;;5136299;27;45272;-73